Time;durP1;ratioP1;P1;durP2;ratioP2;P2;SDS_P1;SDS_P2;PMS_P1;PMS_P2;Temp;Humidity;BMP_temperature;BMP_pressure;BME280_temperature;BME280_humidity;BME280_pressure;Samples;Min_cycle;Max_cycle;Signal;HPM_P1;HPM_P2
2021/08/29 00:00:08;;;;;;;;;;;16.20;99.90;;;;;;5105919;27;19926;-83
2021/08/29 00:02:33;;;;;;;;;;;16.20;99.90;;;;;;5105950;27;19973;-82
2021/08/29 00:04:59;;;;;;;;;;;16.10;99.90;;;;;;5086965;27;19966;-83
2021/08/29 00:07:25;;;;;;;;;;;16.10;99.90;;;;;;5103677;27;19948;-83
2021/08/29 00:09:50;;;;;;;;;;;16.20;99.90;;;;;;5087207;27;19929;-83
2021/08/29 00:12:16;;;;;;;;;;;16.20;99.90;;;;;;5106885;27;19992;-82
2021/08/29 00:14:41;;;;;;;;;;;16.20;99.90;;;;;;5087288;27;19969;-83
2021/08/29 00:17:07;;;;;;;;;;;16.20;99.90;;;;;;5104762;27;20007;-83
2021/08/29 00:19:32;;;;;;;;;;;16.20;99.90;;;;;;5104020;27;19925;-82
2021/08/29 00:21:58;;;;;;;;;;;16.20;99.90;;;;;;5102081;27;20010;-83
2021/08/29 00:24:24;;;;;;;;;;;16.20;99.90;;;;;;5105007;27;20475;-83
2021/08/29 00:26:49;;;;;;;;;;;16.20;99.90;;;;;;5103428;27;19923;-82
2021/08/29 00:29:15;;;;;;;;;;;16.20;99.90;;;;;;5087862;27;20386;-83
2021/08/29 00:31:40;;;;;;;;;;;16.20;99.90;;;;;;5104567;27;19982;-83
2021/08/29 00:34:06;;;;;;;;;;;16.20;99.90;;;;;;5123066;27;19923;-83
2021/08/29 00:36:31;;;;;;;;;;;16.20;99.90;;;;;;5103173;27;20024;-82
2021/08/29 00:38:57;;;;;;;;;;;16.20;99.90;;;;;;5089105;27;19919;-83
2021/08/29 00:41:23;;;;;;;;;;;16.20;99.90;;;;;;5106827;27;19991;-83
2021/08/29 00:43:48;;;;;;;;;;;16.20;99.90;;;;;;5104914;27;19955;-82
2021/08/29 00:46:14;;;;;;;;;;;16.10;99.90;;;;;;5086058;27;20302;-83
2021/08/29 00:48:44;;;;;;;;;;;16.10;99.90;;;;;;5078308;28;20295;-83
2021/08/29 00:51:09;;;;;;;;;;;16.10;99.90;;;;;;5084741;27;19942;-82
2021/08/29 00:53:35;;;;;;;;;;;16.10;99.90;;;;;;5100838;28;19923;-83
2021/08/29 00:56:01;;;;;;;;;;;16.10;99.90;;;;;;5083853;28;20409;-83
2021/08/29 00:58:27;;;;;;;;;;;16.10;99.90;;;;;;5098758;28;20405;-83
2021/08/29 01:00:55;;;;;;;;;;;16.10;99.90;;;;;;5085807;28;19928;-82
2021/08/29 01:03:23;;;;;;;;;;;16.00;99.90;;;;;;5119273;28;20309;-83
2021/08/29 01:05:56;;;;;;;;;;;16.00;99.90;;;;;;5100036;28;19972;-82
2021/08/29 01:08:31;;;;;;;;;;;16.00;99.90;;;;;;5116775;28;20399;-83
2021/08/29 01:11:10;;;;;;;;;;;16.00;99.90;;;;;;5100923;28;19923;-83
2021/08/29 01:13:42;;;;;;;;;;;16.10;99.90;;;;;;5119513;28;19919;-83
2021/08/29 01:16:10;;;;;;;;;;;16.00;99.90;;;;;;5117888;28;19930;-82
2021/08/29 01:18:36;;;;;;;;;;;16.00;99.90;;;;;;5098566;28;19962;-83
2021/08/29 01:21:04;;;;;;;;;;;16.10;99.90;;;;;;5098116;28;20446;-82
2021/08/29 01:23:35;;;;;;;;;;;16.00;99.90;;;;;;5101671;28;19931;-82
2021/08/29 01:26:08;;;;;;;;;;;16.00;99.90;;;;;;5102167;27;20000;-83
2021/08/29 01:28:53;;;;;;;;;;;16.00;99.90;;;;;;5121936;27;19995;-82
2021/08/29 01:31:19;;;;;;;;;;;16.10;99.90;;;;;;5102934;27;20466;-83
2021/08/29 01:33:45;;;;;;;;;;;16.10;99.90;;;;;;5103148;27;19954;-83
2021/08/29 01:36:12;;;;;;;;;;;16.10;99.90;;;;;;5084699;27;19967;-83
2021/08/29 01:38:38;;;;;;;;;;;16.10;99.90;;;;;;5102573;27;19920;-83
2021/08/29 01:41:04;;;;;;;;;;;16.10;99.90;;;;;;5084593;27;19946;-82
2021/08/29 01:43:29;;;;;;;;;;;16.10;99.90;;;;;;5121598;27;19924;-83
2021/08/29 01:45:55;;;;;;;;;;;16.10;99.90;;;;;;5119001;27;20005;-83
2021/08/29 01:48:21;;;;;;;;;;;16.10;99.90;;;;;;5080378;28;20580;-82
2021/08/29 01:50:47;;;;;;;;;;;16.10;99.90;;;;;;5088085;28;19966;-82
2021/08/29 01:53:12;;;;;;;;;;;16.10;99.90;;;;;;5073766;28;20671;-83
2021/08/29 01:55:38;;;;;;;;;;;16.10;99.90;;;;;;5087672;28;19924;-83
2021/08/29 01:58:03;;;;;;;;;;;16.10;99.90;;;;;;5106696;28;20402;-83
2021/08/29 02:00:30;;;;;;;;;;;16.10;99.90;;;;;;5109967;27;19949;-82
2021/08/29 02:02:55;;;;;;;;;;;16.10;99.90;;;;;;5085251;28;19924;-82
2021/08/29 02:05:21;;;;;;;;;;;16.10;99.90;;;;;;5067980;28;19931;-83
2021/08/29 02:07:49;;;;;;;;;;;16.20;99.90;;;;;;5066599;28;19948;-83
2021/08/29 02:10:16;;;;;;;;;;;16.20;99.90;;;;;;5084765;28;20012;-82
2021/08/29 02:12:44;;;;;;;;;;;16.20;99.90;;;;;;5084155;28;19953;-82
2021/08/29 02:15:14;;;;;;;;;;;16.20;99.90;;;;;;5083221;28;19920;-83
2021/08/29 02:17:41;;;;;;;;;;;16.20;99.90;;;;;;5085113;28;19920;-83
2021/08/29 02:20:09;;;;;;;;;;;16.20;99.90;;;;;;5085630;28;19970;-83
2021/08/29 02:22:35;;;;;;;;;;;16.20;99.90;;;;;;5081177;28;19939;-82
2021/08/29 02:25:05;;;;;;;;;;;16.20;99.90;;;;;;5083860;28;20010;-82
2021/08/29 02:27:31;;;;;;;;;;;16.20;99.90;;;;;;5080830;28;20347;-82
2021/08/29 02:29:59;;;;;;;;;;;16.20;99.90;;;;;;5067491;28;19923;-83
2021/08/29 02:32:24;;;;;;;;;;;16.20;99.90;;;;;;5084148;28;19924;-83
2021/08/29 02:34:50;;;;;;;;;;;16.20;99.90;;;;;;5114149;27;20005;-83
2021/08/29 02:37:15;;;;;;;;;;;16.20;99.90;;;;;;5098042;28;19928;-83
2021/08/29 02:39:41;;;;;;;;;;;16.20;99.90;;;;;;5096404;28;19975;-83
2021/08/29 02:42:09;;;;;;;;;;;16.20;99.90;;;;;;5061576;28;19927;-82
2021/08/29 02:44:36;;;;;;;;;;;16.20;99.90;;;;;;5082981;28;19928;-83
2021/08/29 02:47:02;;;;;;;;;;;16.20;99.90;;;;;;5079763;28;20039;-83
2021/08/29 02:49:27;;;;;;;;;;;16.20;99.90;;;;;;5081773;27;20010;-83
2021/08/29 02:51:53;;;;;;;;;;;16.20;99.90;;;;;;5084491;27;19920;-83
2021/08/29 02:54:19;;;;;;;;;;;16.20;99.90;;;;;;5119246;27;19931;-83
2021/08/29 02:56:49;;;;;;;;;;;16.20;99.90;;;;;;5117936;27;20379;-83
2021/08/29 02:59:15;;;;;;;;;;;16.20;99.90;;;;;;5103424;27;19976;-83
2021/08/29 03:01:41;;;;;;;;;;;16.20;99.90;;;;;;5099161;27;19931;-82
2021/08/29 03:04:07;;;;;;;;;;;16.20;99.90;;;;;;5085773;27;19927;-82
2021/08/29 03:06:33;;;;;;;;;;;16.20;99.90;;;;;;5119968;27;19996;-83
2021/08/29 03:08:59;;;;;;;;;;;16.30;99.90;;;;;;5101934;27;20695;-83
2021/08/29 03:11:24;;;;;;;;;;;16.20;99.90;;;;;;5086071;27;19923;-83
2021/08/29 03:13:50;;;;;;;;;;;16.20;99.90;;;;;;5104164;27;19976;-83
2021/08/29 03:16:16;;;;;;;;;;;16.20;99.90;;;;;;5084156;27;19938;-83
2021/08/29 03:18:43;;;;;;;;;;;16.20;99.90;;;;;;5102804;27;19920;-83
2021/08/29 03:21:09;;;;;;;;;;;16.20;99.90;;;;;;5100326;27;19919;-83
2021/08/29 03:23:35;;;;;;;;;;;16.20;99.90;;;;;;5100294;27;19948;-83
2021/08/29 03:26:00;;;;;;;;;;;16.30;99.90;;;;;;5102083;27;20428;-83
2021/08/29 03:28:26;;;;;;;;;;;16.30;99.90;;;;;;5119062;27;20031;-83
2021/08/29 03:30:53;;;;;;;;;;;16.30;99.90;;;;;;5100689;27;19962;-83
2021/08/29 03:33:18;;;;;;;;;;;16.30;99.90;;;;;;5104203;27;19974;-83
2021/08/29 03:35:45;;;;;;;;;;;16.30;99.90;;;;;;5116789;27;19962;-82
2021/08/29 03:38:11;;;;;;;;;;;16.30;99.90;;;;;;5118753;27;20006;-83
2021/08/29 03:40:38;;;;;;;;;;;16.30;99.90;;;;;;5104593;27;20101;-82
2021/08/29 03:43:05;;;;;;;;;;;16.20;99.90;;;;;;5102652;27;19924;-83
2021/08/29 03:45:31;;;;;;;;;;;16.30;99.90;;;;;;5099032;28;19923;-83
2021/08/29 03:47:57;;;;;;;;;;;16.30;99.90;;;;;;5083285;27;19934;-83
2021/08/29 03:50:22;;;;;;;;;;;16.30;99.90;;;;;;5098436;27;19931;-83
2021/08/29 03:52:49;;;;;;;;;;;16.30;99.90;;;;;;5102007;27;19969;-83
2021/08/29 03:55:14;;;;;;;;;;;16.30;99.90;;;;;;5118714;27;19927;-83
2021/08/29 03:57:40;;;;;;;;;;;16.30;99.90;;;;;;5119568;27;20302;-83
2021/08/29 04:00:06;;;;;;;;;;;16.30;99.90;;;;;;5102290;27;19972;-82
2021/08/29 04:02:32;;;;;;;;;;;16.30;99.90;;;;;;5083553;27;19924;-83
2021/08/29 04:04:57;;;;;;;;;;;16.30;99.90;;;;;;5097140;27;21312;-83
2021/08/29 04:07:24;;;;;;;;;;;16.30;99.90;;;;;;5119202;27;20007;-82
2021/08/29 04:09:49;;;;;;;;;;;16.30;99.90;;;;;;5083829;27;20120;-83
2021/08/29 04:12:15;;;;;;;;;;;16.30;99.90;;;;;;5083837;28;19928;-83
2021/08/29 04:14:43;;;;;;;;;;;16.20;99.90;;;;;;5084077;27;19930;-83
2021/08/29 04:17:09;;;;;;;;;;;16.30;99.90;;;;;;5099353;27;20302;-83
2021/08/29 04:19:37;;;;;;;;;;;16.20;99.90;;;;;;5083646;27;19924;-82
2021/08/29 04:22:03;;;;;;;;;;;16.20;99.90;;;;;;5092702;27;19928;-82
2021/08/29 04:24:29;;;;;;;;;;;16.20;99.90;;;;;;5102861;27;19923;-83
2021/08/29 04:26:54;;;;;;;;;;;16.20;99.90;;;;;;5101157;27;19923;-82
2021/08/29 04:29:20;;;;;;;;;;;16.20;99.90;;;;;;5092774;27;19920;-83
2021/08/29 04:31:47;;;;;;;;;;;16.20;99.90;;;;;;5119200;27;19951;-83
2021/08/29 04:34:13;;;;;;;;;;;16.20;99.90;;;;;;5100539;27;19920;-83
2021/08/29 04:36:39;;;;;;;;;;;16.20;99.90;;;;;;5100970;27;19994;-83
2021/08/29 04:39:06;;;;;;;;;;;16.20;99.90;;;;;;5101958;27;19931;-83
2021/08/29 04:41:32;;;;;;;;;;;16.20;99.90;;;;;;5100206;28;19930;-83
2021/08/29 04:43:57;;;;;;;;;;;16.20;99.90;;;;;;5083273;28;20286;-83
2021/08/29 04:46:23;;;;;;;;;;;16.20;99.90;;;;;;5085050;27;19923;-82
2021/08/29 04:48:48;;;;;;;;;;;16.20;99.90;;;;;;5100472;28;19927;-82
2021/08/29 04:51:14;;;;;;;;;;;16.20;99.90;;;;;;5085758;28;20030;-82
2021/08/29 04:53:40;;;;;;;;;;;16.20;99.90;;;;;;5081863;28;19924;-83
2021/08/29 04:56:05;;;;;;;;;;;16.20;99.90;;;;;;5100755;28;19948;-83
2021/08/29 04:58:31;;;;;;;;;;;16.20;99.90;;;;;;5099918;28;19958;-83
2021/08/29 05:00:57;;;;;;;;;;;16.20;99.90;;;;;;5100358;28;19919;-83
2021/08/29 05:03:23;;;;;;;;;;;16.20;99.90;;;;;;5093187;28;19923;-83
2021/08/29 05:05:49;;;;;;;;;;;16.20;99.90;;;;;;5099812;28;20700;-83
2021/08/29 05:08:14;;;;;;;;;;;16.20;99.90;;;;;;5100034;28;20049;-83
2021/08/29 05:10:40;;;;;;;;;;;16.20;99.90;;;;;;5099671;28;19923;-83
2021/08/29 05:13:05;;;;;;;;;;;16.20;99.90;;;;;;5084768;28;20398;-83
2021/08/29 05:15:31;;;;;;;;;;;16.20;99.90;;;;;;5120552;28;19967;-83
2021/08/29 05:17:57;;;;;;;;;;;16.20;99.90;;;;;;5083816;28;19919;-83
2021/08/29 05:20:23;;;;;;;;;;;16.10;99.90;;;;;;5100034;28;19920;-83
2021/08/29 05:22:48;;;;;;;;;;;16.20;99.90;;;;;;5116231;28;20369;-83
2021/08/29 05:25:14;;;;;;;;;;;16.20;99.90;;;;;;5101137;28;20453;-82
2021/08/29 05:27:39;;;;;;;;;;;16.20;99.90;;;;;;5117121;28;20047;-82
2021/08/29 05:30:05;;;;;;;;;;;16.20;99.90;;;;;;5100505;28;19928;-83
2021/08/29 05:32:31;;;;;;;;;;;16.20;99.90;;;;;;5083702;28;20010;-83
2021/08/29 05:34:56;;;;;;;;;;;16.20;99.90;;;;;;5100453;28;20445;-82
2021/08/29 05:37:22;;;;;;;;;;;16.20;99.90;;;;;;5102714;28;19920;-82
2021/08/29 05:39:48;;;;;;;;;;;16.20;99.90;;;;;;5101504;28;19972;-83
2021/08/29 05:42:13;;;;;;;;;;;16.20;99.90;;;;;;5098018;28;20691;-83
2021/08/29 05:44:39;;;;;;;;;;;16.20;99.90;;;;;;5085513;28;20394;-83
2021/08/29 05:47:05;;;;;;;;;;;16.30;99.90;;;;;;5088418;28;19923;-83
2021/08/29 05:49:30;;;;;;;;;;;16.30;99.90;;;;;;5070064;28;20698;-83
2021/08/29 05:51:56;;;;;;;;;;;16.30;99.90;;;;;;5077843;28;19923;-83
2021/08/29 05:54:21;;;;;;;;;;;16.30;99.90;;;;;;5063825;28;19931;-83
2021/08/29 05:56:47;;;;;;;;;;;16.20;99.90;;;;;;5094563;28;19951;-83
2021/08/29 05:59:12;;;;;;;;;;;16.10;99.90;;;;;;5079966;28;20390;-83
2021/08/29 06:01:38;;;;;;;;;;;16.00;99.90;;;;;;5081739;28;19924;-84
2021/08/29 06:04:04;;;;;;;;;;;15.90;99.90;;;;;;5112257;28;19924;-83
2021/08/29 06:06:33;;;;;;;;;;;15.80;99.90;;;;;;5095962;28;19927;-83
2021/08/29 06:08:59;;;;;;;;;;;15.80;99.90;;;;;;5094909;28;20613;-83
2021/08/29 06:11:24;;;;;;;;;;;15.70;99.90;;;;;;5062052;28;19924;-83
2021/08/29 06:13:50;;;;;;;;;;;15.70;99.90;;;;;;5087581;28;19966;-83
2021/08/29 06:16:15;;;;;;;;;;;15.70;99.90;;;;;;5096099;28;20751;-82
2021/08/29 06:18:41;;;;;;;;;;;15.60;99.90;;;;;;5085756;28;19928;-83
2021/08/29 06:21:07;;;;;;;;;;;15.60;99.90;;;;;;5097756;28;20375;-83
2021/08/29 06:23:32;;;;;;;;;;;15.60;99.90;;;;;;5085046;28;19954;-83
2021/08/29 06:25:58;;;;;;;;;;;15.70;99.90;;;;;;5066259;28;19924;-83
2021/08/29 06:28:23;;;;;;;;;;;15.70;99.90;;;;;;5082590;28;19944;-82
2021/08/29 06:30:49;;;;;;;;;;;15.60;99.90;;;;;;5093958;28;19920;-83
2021/08/29 06:33:14;;;;;;;;;;;15.70;99.90;;;;;;5065121;28;20014;-83
2021/08/29 06:35:40;;;;;;;;;;;15.70;99.90;;;;;;5083801;28;19935;-83
2021/08/29 06:38:06;;;;;;;;;;;15.70;99.90;;;;;;5100618;28;19924;-83
2021/08/29 06:40:31;;;;;;;;;;;15.70;99.90;;;;;;5084373;28;19924;-83
2021/08/29 06:42:57;;;;;;;;;;;15.70;99.90;;;;;;5078859;28;19923;-83
2021/08/29 06:45:22;;;;;;;;;;;15.70;99.90;;;;;;5081841;28;19924;-83
2021/08/29 06:47:48;;;;;;;;;;;15.70;99.90;;;;;;5083579;27;20387;-83
2021/08/29 06:50:14;;;;;;;;;;;15.70;99.90;;;;;;5104888;27;19969;-83
2021/08/29 06:52:39;;;;;;;;;;;15.70;99.90;;;;;;5107478;27;19981;-83
2021/08/29 06:55:05;;;;;;;;;;;15.70;99.90;;;;;;5106573;27;20002;-83
2021/08/29 06:57:31;;;;;;;;;;;15.80;99.90;;;;;;5086212;27;20283;-83
2021/08/29 06:59:56;;;;;;;;;;;15.80;99.90;;;;;;5103441;27;19929;-82
2021/08/29 07:02:22;;;;;;;;;;;15.80;99.90;;;;;;5106264;27;19972;-83
2021/08/29 07:04:48;;;;;;;;;;;15.80;99.90;;;;;;5102426;27;19927;-83
2021/08/29 07:07:13;;;;;;;;;;;15.80;99.90;;;;;;5091390;27;20350;-83
2021/08/29 07:09:39;;;;;;;;;;;15.80;99.90;;;;;;5120401;27;19953;-83
2021/08/29 07:12:05;;;;;;;;;;;15.80;99.90;;;;;;5120311;27;19923;-84
2021/08/29 07:14:31;;;;;;;;;;;15.70;99.90;;;;;;5105691;27;19923;-82
2021/08/29 07:16:57;;;;;;;;;;;15.70;99.90;;;;;;5087513;27;19920;-82
2021/08/29 07:19:22;;;;;;;;;;;15.60;99.90;;;;;;5090962;27;19927;-83
2021/08/29 07:21:48;;;;;;;;;;;15.60;99.90;;;;;;5104944;27;19929;-82
2021/08/29 07:24:13;;;;;;;;;;;15.50;99.90;;;;;;5123570;27;20435;-82
2021/08/29 07:26:39;;;;;;;;;;;15.50;99.90;;;;;;5087400;27;19931;-83
2021/08/29 07:29:05;;;;;;;;;;;15.50;99.90;;;;;;5102370;27;20010;-84
2021/08/29 07:31:30;;;;;;;;;;;15.40;99.90;;;;;;5100045;27;19958;-82
2021/08/29 07:33:56;;;;;;;;;;;15.40;99.90;;;;;;5124018;27;19933;-82
2021/08/29 07:36:21;;;;;;;;;;;15.40;99.90;;;;;;5102827;27;19927;-81
2021/08/29 07:38:47;;;;;;;;;;;15.40;99.90;;;;;;5107892;27;20002;-81
2021/08/29 07:41:13;;;;;;;;;;;15.40;99.90;;;;;;5089970;27;20398;-82
2021/08/29 07:43:39;;;;;;;;;;;15.40;99.90;;;;;;5106400;27;19919;-82
2021/08/29 07:46:05;;;;;;;;;;;15.40;99.90;;;;;;5083597;27;19923;-83
2021/08/29 07:48:30;;;;;;;;;;;15.50;99.90;;;;;;5114029;27;20465;-81
2021/08/29 07:50:56;;;;;;;;;;;15.50;99.90;;;;;;5086836;27;19978;-82
2021/08/29 07:53:22;;;;;;;;;;;15.50;99.90;;;;;;5105639;27;19926;-81
2021/08/29 07:55:47;;;;;;;;;;;15.60;99.90;;;;;;5094718;27;20033;-82
2021/08/29 07:58:13;;;;;;;;;;;15.60;99.90;;;;;;5084805;27;19926;-81
2021/08/29 08:00:39;;;;;;;;;;;15.60;99.90;;;;;;5085714;27;20332;-82
2021/08/29 08:03:04;;;;;;;;;;;15.60;99.90;;;;;;5111523;27;19974;-82
2021/08/29 08:05:30;;;;;;;;;;;15.60;99.90;;;;;;5109990;27;20013;-81
2021/08/29 08:07:55;;;;;;;;;;;15.60;99.90;;;;;;5110111;27;19924;-81
2021/08/29 08:10:23;;;;;;;;;;;15.60;99.90;;;;;;5102394;27;20899;-82
2021/08/29 08:12:49;;;;;;;;;;;15.60;99.90;;;;;;5090938;27;20013;-83
2021/08/29 08:15:14;;;;;;;;;;;15.60;99.90;;;;;;5080583;27;20017;-82
2021/08/29 08:17:40;;;;;;;;;;;15.60;99.90;;;;;;5087891;27;20591;-82
2021/08/29 08:20:07;;;;;;;;;;;15.60;99.90;;;;;;5087236;27;19923;-82
2021/08/29 08:22:33;;;;;;;;;;;15.70;99.90;;;;;;5100254;27;20009;-82
2021/08/29 08:24:59;;;;;;;;;;;15.70;99.90;;;;;;5106226;27;19924;-83
2021/08/29 08:27:25;;;;;;;;;;;15.60;99.90;;;;;;5108028;27;20320;-83
2021/08/29 08:29:50;;;;;;;;;;;15.60;99.90;;;;;;5106399;27;19926;-83
2021/08/29 08:32:16;;;;;;;;;;;15.70;99.90;;;;;;5108036;27;19930;-82
2021/08/29 08:34:42;;;;;;;;;;;15.60;99.90;;;;;;5114661;27;20417;-83
2021/08/29 08:37:07;;;;;;;;;;;15.70;99.90;;;;;;5105193;27;19923;-83
2021/08/29 08:39:33;;;;;;;;;;;15.70;99.90;;;;;;5087998;27;20741;-83
2021/08/29 08:41:58;;;;;;;;;;;15.70;99.90;;;;;;5101973;27;19988;-83
2021/08/29 08:44:24;;;;;;;;;;;15.80;99.90;;;;;;5119669;27;19927;-83
2021/08/29 08:46:50;;;;;;;;;;;15.70;99.90;;;;;;5105204;27;19919;-83
2021/08/29 08:49:19;;;;;;;;;;;15.70;99.90;;;;;;5105182;27;19949;-83
2021/08/29 08:51:46;;;;;;;;;;;15.80;99.90;;;;;;5125577;27;20549;-83
2021/08/29 08:54:12;;;;;;;;;;;15.80;99.90;;;;;;5120235;27;20571;-82
2021/08/29 08:56:38;;;;;;;;;;;15.80;99.90;;;;;;5103525;27;20022;-82
2021/08/29 08:59:05;;;;;;;;;;;15.80;99.90;;;;;;5115325;27;20405;-82
2021/08/29 09:01:31;;;;;;;;;;;15.90;99.90;;;;;;5099265;27;21351;-83
2021/08/29 09:03:56;;;;;;;;;;;15.90;99.90;;;;;;5100721;27;19923;-84
2021/08/29 09:06:23;;;;;;;;;;;15.90;99.90;;;;;;5100295;27;19934;-83
2021/08/29 09:08:48;;;;;;;;;;;15.90;99.90;;;;;;5134422;27;19930;-83
2021/08/29 09:11:14;;;;;;;;;;;15.90;99.90;;;;;;5108946;27;20303;-83
2021/08/29 09:13:45;;;;;;;;;;;15.90;99.90;;;;;;5087347;27;19920;-83
2021/08/29 09:16:13;;;;;;;;;;;15.90;99.90;;;;;;5101395;27;19948;-83
2021/08/29 09:18:49;;;;;;;;;;;15.90;99.90;;;;;;5103518;27;19966;-83
2021/08/29 09:21:20;;;;;;;;;;;15.90;99.90;;;;;;5112236;27;19924;-82
2021/08/29 09:23:46;;;;;;;;;;;15.80;99.90;;;;;;5092589;27;20667;-84
2021/08/29 09:26:13;;;;;;;;;;;15.80;99.90;;;;;;5116625;27;19930;-83
2021/08/29 09:28:39;;;;;;;;;;;15.80;99.90;;;;;;5105169;27;19931;-83
2021/08/29 09:31:04;;;;;;;;;;;15.80;99.90;;;;;;5099691;27;19972;-84
2021/08/29 09:33:31;;;;;;;;;;;15.80;99.90;;;;;;5109017;27;19927;-83
2021/08/29 09:35:57;;;;;;;;;;;15.80;99.90;;;;;;5097387;28;20279;-83
2021/08/29 09:38:23;;;;;;;;;;;15.80;99.90;;;;;;5088852;27;19919;-84
2021/08/29 09:40:49;;;;;;;;;;;15.80;99.90;;;;;;5114818;27;20011;-83
2021/08/29 09:43:15;;;;;;;;;;;15.80;99.90;;;;;;5104404;27;19927;-83
2021/08/29 09:45:42;;;;;;;;;;;15.80;99.90;;;;;;5119704;27;19922;-83
2021/08/29 09:48:08;;;;;;;;;;;15.90;99.90;;;;;;5110487;27;19927;-85
2021/08/29 09:50:36;;;;;;;;;;;15.90;99.90;;;;;;5100365;27;20022;-83
2021/08/29 09:53:12;;;;;;;;;;;16.00;99.90;;;;;;5107577;27;20331;-84
2021/08/29 09:55:45;;;;;;;;;;;16.10;99.90;;;;;;5123777;27;19927;-84
2021/08/29 09:58:27;;;;;;;;;;;16.20;99.90;;;;;;5088956;27;19920;-83
2021/08/29 10:01:03;;;;;;;;;;;16.30;99.90;;;;;;5112163;27;19923;-84
2021/08/29 10:03:29;;;;;;;;;;;16.40;99.90;;;;;;5106361;27;19923;-83
2021/08/29 10:06:14;;;;;;;;;;;16.40;99.90;;;;;;5113893;27;19929;-84
2021/08/29 10:08:41;;;;;;;;;;;16.30;99.90;;;;;;5097559;27;19927;-84
2021/08/29 10:11:07;;;;;;;;;;;16.40;99.90;;;;;;5102695;27;20002;-84
2021/08/29 10:13:33;;;;;;;;;;;16.30;99.90;;;;;;5095121;27;19929;-84
2021/08/29 10:15:59;;;;;;;;;;;16.40;99.90;;;;;;5116788;27;20400;-84
2021/08/29 10:18:25;;;;;;;;;;;16.30;99.90;;;;;;5098776;27;19923;-84
2021/08/29 10:20:50;;;;;;;;;;;16.30;99.90;;;;;;5081264;27;19949;-83
2021/08/29 10:23:17;;;;;;;;;;;16.20;99.90;;;;;;5108829;27;20021;-83
2021/08/29 10:25:43;;;;;;;;;;;16.30;99.90;;;;;;5091999;27;19927;-83
2021/08/29 10:28:11;;;;;;;;;;;16.30;99.90;;;;;;5115712;27;19930;-85
2021/08/29 10:30:39;;;;;;;;;;;16.30;99.90;;;;;;5099228;27;20397;-84
2021/08/29 10:33:05;;;;;;;;;;;16.30;99.90;;;;;;5107269;27;19923;-84
2021/08/29 10:35:32;;;;;;;;;;;16.30;99.90;;;;;;5104113;27;19919;-84
2021/08/29 10:37:57;;;;;;;;;;;16.30;99.90;;;;;;5096690;27;19929;-84
2021/08/29 10:40:23;;;;;;;;;;;16.30;99.90;;;;;;5109368;27;19919;-84
2021/08/29 10:42:50;;;;;;;;;;;16.30;99.90;;;;;;5098214;27;20010;-84
2021/08/29 10:45:15;;;;;;;;;;;16.30;99.90;;;;;;5099056;27;19949;-84
2021/08/29 10:47:43;;;;;;;;;;;16.30;99.90;;;;;;5091377;27;20370;-84
2021/08/29 10:50:12;;;;;;;;;;;16.40;99.90;;;;;;5096970;27;19923;-84
2021/08/29 10:52:38;;;;;;;;;;;16.40;99.90;;;;;;5121776;27;19962;-84
2021/08/29 10:55:08;;;;;;;;;;;16.40;99.90;;;;;;5087994;27;20038;-84
2021/08/29 10:57:38;;;;;;;;;;;16.40;99.90;;;;;;5103002;27;20390;-83
2021/08/29 11:00:12;;;;;;;;;;;16.40;99.90;;;;;;5089470;27;20388;-83
2021/08/29 11:02:39;;;;;;;;;;;16.30;99.90;;;;;;5100777;27;20000;-86
2021/08/29 11:05:05;;;;;;;;;;;16.40;99.90;;;;;;5112058;27;19922;-83
2021/08/29 11:07:42;;;;;;;;;;;16.40;99.90;;;;;;5111926;27;19969;-83
2021/08/29 11:10:10;;;;;;;;;;;16.40;99.90;;;;;;5115110;27;19976;-84
2021/08/29 11:12:36;;;;;;;;;;;16.40;99.90;;;;;;5120459;27;19927;-83
2021/08/29 11:15:03;;;;;;;;;;;16.30;99.90;;;;;;5094118;27;19997;-83
2021/08/29 11:17:33;;;;;;;;;;;16.40;99.90;;;;;;5105833;27;19926;-84
2021/08/29 11:20:02;;;;;;;;;;;16.40;99.90;;;;;;5124032;27;19935;-83
2021/08/29 11:22:28;;;;;;;;;;;16.40;99.90;;;;;;5109505;27;19925;-82
2021/08/29 11:24:53;;;;;;;;;;;16.40;99.90;;;;;;5105484;27;19923;-83
2021/08/29 11:27:37;;;;;;;;;;;16.50;99.90;;;;;;5106972;27;19934;-83
2021/08/29 11:30:10;;;;;;;;;;;16.50;99.90;;;;;;5104970;27;19927;-82
2021/08/29 11:32:45;;;;;;;;;;;16.50;99.90;;;;;;5124106;27;19934;-82
2021/08/29 11:35:17;;;;;;;;;;;16.50;99.90;;;;;;5104973;27;19923;-84
2021/08/29 11:37:58;;;;;;;;;;;16.50;99.90;;;;;;5105811;27;19927;-84
2021/08/29 11:40:24;;;;;;;;;;;16.50;99.90;;;;;;5105218;27;19923;-84
2021/08/29 11:43:08;;;;;;;;;;;16.50;99.90;;;;;;5100972;27;20045;-84
2021/08/29 11:45:34;;;;;;;;;;;16.40;99.90;;;;;;5104972;27;19972;-84
2021/08/29 11:48:00;;;;;;;;;;;16.40;99.90;;;;;;5114797;27;20362;-84
2021/08/29 11:50:29;;;;;;;;;;;16.40;99.90;;;;;;5086673;27;19948;-84
2021/08/29 11:52:57;;;;;;;;;;;16.50;99.90;;;;;;5095401;27;19927;-84
2021/08/29 11:55:23;;;;;;;;;;;16.50;99.90;;;;;;5103297;27;20021;-84
2021/08/29 11:57:52;;;;;;;;;;;16.60;99.90;;;;;;5101731;27;20417;-84
2021/08/29 12:00:19;;;;;;;;;;;16.60;99.90;;;;;;5119956;27;19922;-84
2021/08/29 12:02:46;;;;;;;;;;;16.60;99.90;;;;;;5132631;27;19930;-84
2021/08/29 12:05:12;;;;;;;;;;;16.60;99.90;;;;;;5115009;27;19923;-84
2021/08/29 12:07:40;;;;;;;;;;;16.60;99.90;;;;;;5098998;27;20715;-84
2021/08/29 12:10:08;;;;;;;;;;;16.60;99.90;;;;;;5105049;27;20282;-84
2021/08/29 12:12:34;;;;;;;;;;;16.60;99.90;;;;;;5116065;27;19966;-83
2021/08/29 12:15:01;;;;;;;;;;;16.70;99.90;;;;;;5115946;27;19973;-83
2021/08/29 12:17:28;;;;;;;;;;;16.80;99.90;;;;;;5115660;27;20286;-83
2021/08/29 12:19:54;;;;;;;;;;;16.80;99.90;;;;;;5130963;27;19935;-83
2021/08/29 12:22:20;;;;;;;;;;;16.70;99.90;;;;;;5102730;27;19920;-83
2021/08/29 12:24:47;;;;;;;;;;;16.80;99.90;;;;;;5079405;27;19926;-84
2021/08/29 12:27:14;;;;;;;;;;;16.80;99.90;;;;;;5083428;27;19923;-84
2021/08/29 12:29:45;;;;;;;;;;;16.80;99.90;;;;;;5114099;27;20309;-83
2021/08/29 12:32:12;;;;;;;;;;;16.80;99.90;;;;;;5111248;27;19923;-83
2021/08/29 12:34:38;;;;;;;;;;;16.80;99.90;;;;;;5114213;27;20293;-82
2021/08/29 12:37:04;;;;;;;;;;;16.80;99.90;;;;;;5109757;27;19923;-83
2021/08/29 12:39:30;;;;;;;;;;;16.90;99.90;;;;;;5130393;27;19926;-83
2021/08/29 12:42:12;;;;;;;;;;;16.90;99.90;;;;;;5113784;27;19919;-83
2021/08/29 12:44:38;;;;;;;;;;;16.90;99.90;;;;;;5112289;27;19924;-84
2021/08/29 12:47:04;;;;;;;;;;;16.90;99.90;;;;;;5124493;27;19930;-83
2021/08/29 12:49:29;;;;;;;;;;;16.80;99.90;;;;;;5094987;27;19996;-84
2021/08/29 12:51:55;;;;;;;;;;;16.80;99.90;;;;;;5112890;27;19929;-84
2021/08/29 12:54:21;;;;;;;;;;;16.80;99.90;;;;;;5095517;27;19922;-82
2021/08/29 12:56:52;;;;;;;;;;;16.70;99.90;;;;;;5121530;27;19930;-83
2021/08/29 12:59:25;;;;;;;;;;;16.70;99.90;;;;;;5117156;27;20350;-83
2021/08/29 13:01:52;;;;;;;;;;;16.70;99.90;;;;;;5096462;27;19923;-84
2021/08/29 13:04:23;;;;;;;;;;;16.70;99.90;;;;;;5109260;27;19948;-82
2021/08/29 13:06:59;;;;;;;;;;;16.70;99.90;;;;;;5120693;27;19920;-83
2021/08/29 13:09:25;;;;;;;;;;;16.80;99.90;;;;;;5130283;27;19990;-84
2021/08/29 13:11:50;;;;;;;;;;;16.70;99.90;;;;;;5116968;27;19923;-84
2021/08/29 13:14:26;;;;;;;;;;;16.80;99.90;;;;;;5116764;27;19934;-84
2021/08/29 13:16:52;;;;;;;;;;;16.70;99.90;;;;;;5135006;27;20014;-84
2021/08/29 13:19:23;;;;;;;;;;;16.70;99.90;;;;;;5096811;27;20024;-86
2021/08/29 13:21:54;;;;;;;;;;;16.80;99.90;;;;;;5112493;27;20378;-86
2021/08/29 13:24:27;;;;;;;;;;;16.80;99.90;;;;;;5116845;27;19926;-85
2021/08/29 13:26:53;;;;;;;;;;;16.80;99.90;;;;;;5119267;27;19926;-84
2021/08/29 13:29:19;;;;;;;;;;;16.80;99.90;;;;;;5128531;27;20313;-85
2021/08/29 13:31:45;;;;;;;;;;;16.80;99.90;;;;;;5110519;27;19923;-84
2021/08/29 13:34:11;;;;;;;;;;;16.80;99.90;;;;;;5112381;27;19923;-85
2021/08/29 13:36:48;;;;;;;;;;;16.90;99.90;;;;;;5105548;27;19972;-84
2021/08/29 13:39:15;;;;;;;;;;;16.90;99.90;;;;;;5127514;27;20022;-83
2021/08/29 13:41:41;;;;;;;;;;;16.80;99.90;;;;;;5127646;27;19923;-83
2021/08/29 13:44:11;;;;;;;;;;;16.80;99.90;;;;;;5099501;27;20359;-85
2021/08/29 13:46:37;;;;;;;;;;;16.80;99.90;;;;;;5109610;27;19930;-84
2021/08/29 13:49:02;;;;;;;;;;;16.80;99.90;;;;;;5087059;27;20626;-86
2021/08/29 13:51:28;;;;;;;;;;;16.70;99.90;;;;;;5115824;27;19933;-85
2021/08/29 13:53:54;;;;;;;;;;;16.70;99.90;;;;;;5109055;27;19926;-86
2021/08/29 13:56:21;;;;;;;;;;;16.70;99.90;;;;;;5118173;27;19919;-84
2021/08/29 13:58:46;;;;;;;;;;;16.70;99.90;;;;;;5141343;27;19919;-84
2021/08/29 14:01:12;;;;;;;;;;;16.70;99.90;;;;;;5097435;27;20384;-85
2021/08/29 14:03:38;;;;;;;;;;;16.70;99.90;;;;;;5114251;27;19930;-82
2021/08/29 14:06:04;;;;;;;;;;;16.70;99.90;;;;;;5102312;27;20524;-83
2021/08/29 14:08:34;;;;;;;;;;;16.80;99.90;;;;;;5121009;27;19915;-84
2021/08/29 14:11:00;;;;;;;;;;;16.80;99.90;;;;;;5142426;27;20606;-84
2021/08/29 14:13:26;;;;;;;;;;;16.80;99.90;;;;;;5130168;27;20263;-85